createdAt,value
2017-07-05T00:00:35.466Z,77.20
2017-07-05T00:03:01.991Z,77.20
2017-07-05T00:05:29.241Z,77.30
2017-07-05T00:07:56.534Z,77.50
2017-07-05T00:10:23.016Z,77.50
2017-07-05T00:12:50.254Z,77.50
2017-07-05T00:15:16.765Z,77.50
2017-07-05T00:17:43.278Z,77.50
2017-07-05T00:20:09.814Z,77.60
2017-07-05T00:22:36.326Z,77.60
2017-07-05T00:25:02.827Z,77.50
2017-07-05T00:27:30.141Z,77.70
2017-07-05T00:29:56.626Z,77.50
2017-07-05T00:32:23.868Z,77.80
2017-07-05T00:34:51.166Z,77.80
2017-07-05T00:37:17.637Z,77.70
2017-07-05T00:39:44.151Z,77.80
2017-07-05T00:42:10.663Z,77.90
2017-07-05T00:44:37.163Z,77.80
2017-07-05T00:47:03.664Z,77.80
2017-07-05T00:49:30.131Z,77.80
2017-07-05T00:51:56.664Z,77.90
2017-07-05T00:54:23.149Z,78.00
2017-07-05T00:56:49.616Z,77.90
2017-07-05T00:59:16.870Z,78.00
2017-07-05T01:01:44.087Z,78.00
2017-07-05T01:04:10.622Z,78.00
2017-07-05T01:06:37.096Z,77.90
2017-07-05T01:09:03.630Z,77.90
2017-07-05T01:11:30.158Z,77.90
2017-07-05T01:13:56.678Z,77.90
2017-07-05T01:16:23.886Z,78.10
2017-07-05T01:18:50.433Z,78.00
2017-07-05T01:21:16.933Z,78.00
2017-07-05T01:23:43.431Z,78.00
2017-07-05T01:26:10.682Z,78.10
2017-07-05T01:28:37.959Z,78.30
2017-07-05T01:31:04.498Z,78.30
2017-07-05T01:33:30.991Z,78.60
2017-07-05T01:35:58.283Z,79.50
2017-07-05T01:38:24.763Z,78.80
2017-07-05T01:40:51.281Z,78.90
2017-07-05T01:43:17.754Z,79.00
2017-07-05T01:45:44.287Z,79.10
2017-07-05T01:48:10.853Z,79.30
2017-07-05T01:50:37.390Z,79.10
2017-07-05T01:53:03.935Z,79.10
2017-07-05T01:55:30.520Z,79.10
2017-07-05T01:57:57.091Z,79.30
2017-07-05T02:00:23.562Z,79.50
2017-07-05T02:02:50.032Z,79.50
2017-07-05T02:05:16.564Z,79.40
2017-07-05T02:07:43.066Z,79.60
2017-07-05T02:10:10.331Z,79.50
2017-07-05T02:12:37.601Z,79.40
2017-07-05T02:15:04.070Z,79.40
2017-07-05T02:17:30.546Z,79.30
2017-07-05T02:19:57.792Z,79.20
2017-07-05T02:22:24.281Z,79.20
2017-07-05T02:24:50.795Z,79.30
2017-07-05T02:27:17.266Z,79.20
2017-07-05T02:29:50.955Z,79.20
2017-07-05T02:32:17.454Z,79.10
2017-07-05T02:34:43.967Z,79.10
2017-07-05T02:37:10.504Z,79.30
2017-07-05T02:39:37.037Z,79.40
2017-07-05T02:42:03.537Z,79.40
2017-07-05T02:44:30.075Z,79.70
2017-07-05T02:46:56.571Z,79.70
2017-07-05T02:49:23.034Z,79.90
2017-07-05T02:51:49.745Z,79.60
2017-07-05T02:54:16.201Z,79.50
2017-07-05T02:56:42.690Z,79.60
2017-07-05T02:59:09.226Z,79.70
2017-07-05T03:01:35.692Z,79.60
2017-07-05T03:04:02.207Z,79.70
2017-07-05T03:06:28.706Z,79.80
2017-07-05T03:08:55.257Z,80.00
2017-07-05T03:11:21.757Z,80.00
2017-07-05T03:13:48.978Z,80.00
2017-07-05T03:16:15.500Z,80.00
2017-07-05T03:18:41.969Z,80.00
2017-07-05T03:21:09.168Z,79.90
2017-07-05T03:23:35.682Z,79.90
2017-07-05T03:26:02.195Z,80.00
2017-07-05T03:28:29.397Z,80.40
2017-07-05T03:30:56.140Z,80.40
2017-07-05T03:33:22.606Z,80.40
2017-07-05T03:35:49.830Z,80.30
2017-07-05T03:38:16.362Z,80.30
2017-07-05T03:40:43.104Z,80.40
2017-07-05T03:43:09.587Z,80.40
2017-07-05T03:45:36.041Z,80.60
2017-07-05T03:48:02.578Z,80.50
2017-07-05T03:50:29.084Z,80.40
2017-07-05T03:52:55.766Z,80.30
2017-07-05T03:55:22.257Z,80.30
2017-07-05T03:57:48.778Z,80.40
2017-07-05T04:00:15.281Z,80.40
2017-07-05T04:02:41.833Z,80.40
2017-07-05T04:05:09.058Z,80.40
2017-07-05T04:07:35.516Z,80.40
2017-07-05T04:10:02.775Z,80.50
2017-07-05T04:12:29.285Z,80.40
2017-07-05T04:14:55.818Z,80.40
2017-07-05T04:17:22.270Z,80.50
2017-07-05T04:19:49.511Z,80.40
2017-07-05T04:22:16.699Z,80.60
2017-07-05T04:24:43.174Z,80.60
2017-07-05T04:27:09.694Z,80.50
2017-07-05T04:29:36.242Z,80.40
2017-07-05T04:32:02.738Z,80.80
2017-07-05T04:34:29.210Z,81.60
2017-07-05T04:36:55.732Z,81.00
2017-07-05T04:39:22.211Z,81.10
2017-07-05T04:41:48.703Z,80.90
2017-07-05T04:44:15.203Z,80.70
2017-07-05T04:46:41.698Z,80.40
2017-07-05T04:49:08.202Z,80.30
2017-07-05T04:51:34.707Z,80.00
2017-07-05T04:54:01.176Z,79.70
2017-07-05T04:56:27.779Z,79.50
2017-07-05T04:58:54.217Z,79.30
2017-07-05T05:01:20.754Z,79.10
2017-07-05T05:03:47.221Z,78.90
2017-07-05T05:06:14.412Z,78.50
2017-07-05T05:08:40.925Z,78.50
2017-07-05T05:11:07.400Z,78.40
2017-07-05T05:13:33.940Z,78.20
2017-07-05T05:16:00.399Z,77.70
2017-07-05T05:18:27.653Z,76.20
2017-07-05T05:20:54.877Z,75.90
2017-07-05T05:23:21.368Z,75.80
2017-07-05T05:25:47.876Z,75.10
2017-07-05T05:28:14.389Z,74.50
2017-07-05T05:30:41.653Z,72.70
2017-07-05T05:33:08.936Z,73.00
2017-07-05T05:35:35.451Z,73.00
2017-07-05T05:38:01.963Z,72.00
2017-07-05T05:40:29.189Z,70.40
2017-07-05T05:42:55.709Z,70.40
2017-07-05T05:45:22.206Z,70.10
2017-07-05T05:47:48.664Z,69.50
2017-07-05T05:50:15.182Z,68.50
2017-07-05T05:52:41.658Z,67.70
2017-07-05T05:55:08.157Z,67.30
2017-07-05T05:57:34.655Z,66.60
2017-07-05T06:00:01.206Z,65.60
2017-07-05T06:02:27.701Z,64.70
2017-07-05T06:04:54.959Z,63.90
2017-07-05T06:07:22.207Z,64.30
2017-07-05T06:09:49.435Z,63.00
2017-07-05T06:12:15.967Z,62.90
2017-07-05T06:14:42.446Z,61.30
2017-07-05T06:17:08.967Z,60.80
2017-07-05T06:19:36.205Z,60.20
2017-07-05T06:22:03.778Z,59.00
2017-07-05T06:24:30.323Z,59.00
2017-07-05T06:26:56.820Z,58.50
2017-07-05T06:29:23.348Z,57.90
2017-07-05T06:31:50.735Z,58.00
2017-07-05T06:34:17.219Z,57.20
2017-07-05T06:36:43.766Z,56.20
2017-07-05T06:39:10.248Z,56.40
2017-07-05T06:41:36.728Z,55.70
2017-07-05T06:44:03.250Z,55.30
2017-07-05T06:46:29.734Z,54.40
2017-07-05T06:48:56.233Z,54.70
2017-07-05T06:51:22.725Z,53.30
2017-07-05T06:53:49.186Z,53.60
2017-07-05T06:56:15.708Z,53.10
2017-07-05T06:58:42.210Z,52.60
2017-07-05T07:01:08.882Z,52.50
2017-07-05T07:03:35.374Z,52.10
2017-07-05T07:06:01.860Z,52.20
2017-07-05T07:08:28.364Z,51.30
2017-07-05T07:10:54.841Z,51.70
2017-07-05T07:13:22.117Z,50.50
2017-07-05T07:15:48.616Z,51.20
2017-07-05T07:18:15.685Z,50.60
2017-07-05T07:20:42.934Z,49.40
2017-07-05T07:23:09.457Z,49.40
2017-07-05T07:25:36.718Z,48.40
2017-07-05T07:28:03.979Z,48.40
2017-07-05T07:30:33.825Z,48.40
2017-07-05T07:33:00.322Z,48.10
2017-07-05T07:35:26.825Z,47.20
2017-07-05T07:37:53.362Z,46.70
2017-07-05T07:40:19.840Z,46.30
2017-07-05T07:42:46.372Z,45.00
2017-07-05T07:45:12.866Z,45.30
2017-07-05T07:47:39.358Z,43.80
2017-07-05T07:50:05.863Z,43.90
2017-07-05T07:52:32.334Z,43.90
2017-07-05T07:54:58.879Z,42.70
2017-07-05T07:57:25.720Z,42.60
2017-07-05T07:59:52.251Z,42.70
2017-07-05T08:02:18.760Z,41.40
2017-07-05T08:04:45.281Z,41.10
2017-07-05T08:07:11.809Z,40.80
2017-07-05T08:09:38.281Z,41.30
2017-07-05T08:12:04.801Z,40.70
2017-07-05T08:14:31.346Z,40.20
2017-07-05T08:16:57.845Z,40.10
2017-07-05T08:19:24.337Z,39.20
2017-07-05T08:21:51.624Z,38.40
2017-07-05T08:24:18.123Z,38.40
2017-07-05T08:26:46.285Z,37.50
2017-07-05T08:29:12.786Z,37.40
2017-07-05T08:31:39.657Z,37.70
2017-07-05T08:34:06.195Z,37.00
2017-07-05T08:36:33.420Z,39.00
2017-07-05T08:38:59.878Z,38.30
2017-07-05T08:41:27.137Z,37.00
2017-07-05T08:43:54.416Z,35.40
2017-07-05T08:46:20.877Z,35.40
2017-07-05T08:48:47.410Z,35.10
2017-07-05T08:51:13.888Z,35.70
2017-07-05T08:53:41.138Z,35.50
2017-07-05T08:56:08.353Z,35.00
2017-07-05T08:58:35.087Z,34.90
2017-07-05T09:01:01.560Z,32.90
2017-07-05T09:03:28.773Z,33.30
2017-07-05T09:05:55.316Z,33.30
2017-07-05T09:08:21.778Z,33.10
2017-07-05T09:10:48.989Z,33.00
2017-07-05T09:13:15.511Z,32.90
2017-07-05T09:15:42.003Z,33.20
2017-07-05T09:18:08.613Z,33.00
2017-07-05T09:20:35.829Z,30.90
2017-07-05T09:23:02.321Z,30.70
2017-07-05T09:25:28.848Z,30.90
2017-07-05T09:27:55.339Z,31.50
2017-07-05T09:30:21.866Z,30.60
2017-07-05T09:32:48.393Z,30.50
2017-07-05T09:35:14.891Z,30.40
2017-07-05T09:37:41.409Z,30.30
2017-07-05T09:40:08.652Z,30.00
2017-07-05T09:42:35.918Z,28.60
2017-07-05T09:45:02.404Z,28.60
2017-07-05T09:47:28.892Z,29.80
2017-07-05T09:49:55.424Z,29.70
2017-07-05T09:52:21.920Z,29.70
2017-07-05T09:54:48.389Z,30.40
2017-07-05T09:57:16.008Z,30.20
2017-07-05T09:59:42.487Z,28.60
2017-07-05T10:02:09.155Z,29.10
2017-07-05T10:04:35.986Z,30.80
2017-07-05T10:07:02.487Z,30.40
2017-07-05T10:09:29.023Z,29.20
2017-07-05T10:11:55.493Z,29.00
2017-07-05T10:14:21.976Z,31.20
2017-07-05T10:16:49.239Z,31.40
2017-07-05T10:19:15.704Z,31.30
2017-07-05T10:21:42.220Z,32.50
2017-07-05T10:24:08.734Z,32.20
2017-07-05T10:26:35.250Z,32.00
2017-07-05T10:29:02.464Z,32.20
2017-07-05T10:31:28.941Z,32.00
2017-07-05T10:33:55.464Z,32.90
2017-07-05T10:36:22.679Z,31.20
2017-07-05T10:38:49.158Z,31.20
2017-07-05T10:41:15.691Z,29.80
2017-07-05T10:43:42.218Z,30.00
2017-07-05T10:46:09.465Z,30.60
2017-07-05T10:48:36.684Z,31.50
2017-07-05T10:51:03.389Z,31.50
2017-07-05T10:53:29.918Z,31.10
2017-07-05T10:55:56.409Z,31.60
2017-07-05T10:58:22.978Z,30.80
2017-07-05T11:00:49.452Z,30.30
2017-07-05T11:03:15.919Z,30.40
2017-07-05T11:05:43.172Z,31.30
2017-07-05T11:08:09.636Z,31.30
2017-07-05T11:10:36.216Z,30.80
2017-07-05T11:13:02.681Z,31.60
2017-07-05T11:15:29.155Z,31.60
2017-07-05T11:17:55.628Z,31.40
2017-07-05T11:20:22.901Z,31.60
2017-07-05T11:22:49.401Z,31.60
2017-07-05T11:25:15.929Z,31.40
2017-07-05T11:27:42.420Z,34.60
2017-07-05T11:30:08.958Z,34.10
2017-07-05T11:32:36.892Z,33.60
2017-07-05T11:35:05.210Z,34.30
2017-07-05T11:37:31.948Z,34.80
2017-07-05T11:39:58.469Z,34.80
2017-07-05T11:42:25.022Z,34.50
2017-07-05T11:44:51.563Z,35.10
2017-07-05T11:47:18.063Z,35.20
2017-07-05T11:49:44.614Z,35.60
2017-07-05T11:52:11.100Z,34.80
2017-07-05T11:54:38.332Z,36.10
2017-07-05T11:57:05.027Z,36.10
2017-07-05T11:59:31.510Z,36.00
2017-07-05T12:01:58.716Z,36.40
2017-07-05T12:04:25.213Z,36.30
2017-07-05T12:06:51.684Z,36.50
2017-07-05T12:09:18.185Z,37.10
2017-07-05T12:11:44.649Z,36.70
2017-07-05T12:14:11.138Z,36.80
2017-07-05T12:16:37.641Z,37.90
2017-07-05T12:19:04.114Z,37.10
2017-07-05T12:21:30.620Z,36.60
2017-07-05T12:23:57.880Z,36.90
2017-07-05T12:26:24.374Z,36.90
2017-07-05T12:28:51.004Z,36.90
2017-07-05T12:31:17.466Z,36.40
2017-07-05T12:33:44.732Z,37.10
2017-07-05T12:36:11.244Z,37.10
2017-07-05T12:38:37.744Z,35.70
2017-07-05T12:41:04.245Z,36.70
2017-07-05T12:43:30.763Z,37.20
2017-07-05T12:45:58.148Z,37.30
2017-07-05T12:48:24.633Z,37.10
2017-07-05T12:50:51.850Z,36.70
2017-07-05T12:53:18.347Z,36.60
2017-07-05T12:55:44.887Z,36.70
2017-07-05T12:58:11.396Z,36.90
2017-07-05T13:00:38.008Z,37.00
2017-07-05T13:03:04.488Z,36.90
2017-07-05T13:05:30.962Z,35.50
2017-07-05T13:07:57.457Z,35.80
2017-07-05T13:10:23.929Z,36.10
2017-07-05T13:12:50.452Z,36.40
2017-07-05T13:15:16.924Z,36.60
2017-07-05T13:17:44.192Z,35.80
2017-07-05T13:20:10.750Z,35.70
2017-07-05T13:22:37.206Z,36.00
2017-07-05T13:25:03.912Z,35.90
2017-07-05T13:27:30.372Z,35.70
2017-07-05T13:29:56.864Z,36.10
2017-07-05T13:32:23.377Z,36.10
2017-07-05T13:34:50.640Z,36.00
2017-07-05T13:37:17.129Z,35.90
2017-07-05T13:39:43.656Z,36.30
2017-07-05T13:42:10.118Z,36.30
2017-07-05T13:44:37.329Z,36.70
2017-07-05T13:47:03.820Z,36.60
2017-07-05T13:49:30.321Z,36.90
2017-07-05T13:51:56.817Z,37.30
2017-07-05T13:54:23.482Z,37.00
2017-07-05T13:56:49.932Z,38.30
2017-07-05T13:59:17.153Z,38.10
2017-07-05T14:01:43.762Z,38.00
2017-07-05T14:04:10.222Z,37.70
2017-07-05T14:06:36.705Z,38.80
2017-07-05T14:09:03.362Z,38.50
2017-07-05T14:11:29.851Z,38.90
2017-07-05T14:13:57.113Z,38.20
2017-07-05T14:16:24.345Z,38.80
2017-07-05T14:18:51.758Z,38.50
2017-07-05T14:21:18.260Z,38.40
2017-07-05T14:23:44.736Z,38.30
2017-07-05T14:26:11.249Z,39.20
2017-07-05T14:28:37.744Z,39.00
2017-07-05T14:31:04.970Z,39.40
2017-07-05T14:33:31.443Z,39.30
2017-07-05T14:35:57.946Z,39.30
2017-07-05T14:38:25.187Z,38.60
2017-07-05T14:40:51.735Z,38.60
2017-07-05T14:43:18.970Z,40.40
2017-07-05T14:45:45.483Z,40.30
2017-07-05T14:48:11.968Z,40.00
2017-07-05T14:50:38.446Z,40.00
2017-07-05T14:53:04.984Z,39.90
2017-07-05T14:55:31.522Z,40.40
2017-07-05T14:57:58.213Z,40.30
2017-07-05T15:00:24.695Z,40.50
2017-07-05T15:02:51.169Z,40.00
2017-07-05T15:05:17.714Z,39.50
2017-07-05T15:07:44.359Z,39.90
2017-07-05T15:10:10.838Z,39.40
2017-07-05T15:12:37.360Z,40.20
2017-07-05T15:15:03.854Z,40.00
2017-07-05T15:17:30.362Z,40.10
2017-07-05T15:19:57.656Z,40.40
2017-07-05T15:22:24.125Z,40.40
2017-07-05T15:24:50.594Z,40.30
2017-07-05T15:27:17.082Z,39.70
2017-07-05T15:29:43.542Z,39.90
2017-07-05T15:32:10.789Z,39.50
2017-07-05T15:34:38.025Z,39.60
2017-07-05T15:37:05.250Z,39.50
2017-07-05T15:39:31.736Z,39.20
2017-07-05T15:41:58.189Z,39.50
2017-07-05T15:44:24.702Z,39.60
2017-07-05T15:46:51.190Z,39.30
2017-07-05T15:49:17.650Z,39.20
2017-07-05T15:51:44.179Z,40.00
2017-07-05T15:54:10.638Z,39.60
2017-07-05T15:56:37.315Z,39.30
2017-07-05T15:59:03.788Z,39.60
2017-07-05T16:01:31.006Z,39.60
2017-07-05T16:03:57.531Z,39.40
2017-07-05T16:06:24.005Z,39.60
2017-07-05T16:08:51.499Z,40.40
2017-07-05T16:11:18.030Z,40.40
2017-07-05T16:13:44.499Z,42.20
2017-07-05T16:16:11.007Z,40.20
2017-07-05T16:18:37.497Z,40.80
2017-07-05T16:21:04.037Z,40.90
2017-07-05T16:23:30.573Z,40.40
2017-07-05T16:25:57.074Z,40.20
2017-07-05T16:28:24.352Z,40.00
2017-07-05T16:30:50.841Z,40.40
2017-07-05T16:33:17.362Z,40.00
2017-07-05T16:35:43.890Z,40.00
2017-07-05T16:38:10.359Z,39.90
2017-07-05T16:40:37.603Z,40.30
2017-07-05T16:43:05.034Z,40.80
2017-07-05T16:45:31.546Z,40.60
2017-07-05T16:47:58.005Z,40.90
2017-07-05T16:50:24.542Z,41.40
2017-07-05T16:52:51.032Z,41.70
2017-07-05T16:55:17.502Z,41.70
2017-07-05T16:57:44.028Z,41.60
2017-07-05T17:00:10.522Z,41.60
2017-07-05T17:02:36.999Z,42.90
2017-07-05T17:05:03.561Z,42.80
2017-07-05T17:07:30.833Z,43.30
2017-07-05T17:09:57.397Z,43.30
2017-07-05T17:12:23.870Z,43.10
2017-07-05T17:14:50.483Z,43.10
2017-07-05T17:17:16.976Z,43.30
2017-07-05T17:19:43.454Z,44.00
2017-07-05T17:22:09.967Z,43.80
2017-07-05T17:24:36.429Z,43.90
2017-07-05T17:27:02.941Z,44.00
2017-07-05T17:29:29.420Z,43.90
2017-07-05T17:31:56.825Z,43.90
2017-07-05T17:34:23.330Z,43.90
2017-07-05T17:36:49.801Z,44.00
2017-07-05T17:39:16.344Z,43.80
2017-07-05T17:41:42.836Z,43.90
2017-07-05T17:44:09.370Z,44.10
2017-07-05T17:46:35.852Z,44.10
2017-07-05T17:49:02.344Z,44.50
2017-07-05T17:51:29.177Z,45.00
2017-07-05T17:53:55.663Z,45.40
2017-07-05T17:56:22.920Z,45.30
2017-07-05T17:58:50.183Z,45.30
2017-07-05T18:01:16.664Z,45.30
2017-07-05T18:03:43.404Z,45.40
2017-07-05T18:06:09.870Z,45.80
2017-07-05T18:08:37.114Z,46.50
2017-07-05T18:11:03.608Z,46.40
2017-07-05T18:13:30.070Z,46.80
2017-07-05T18:15:56.576Z,46.80
2017-07-05T18:18:23.072Z,46.90
2017-07-05T18:20:49.586Z,47.10
2017-07-05T18:23:16.805Z,47.40
2017-07-05T18:25:43.315Z,47.40
2017-07-05T18:28:09.784Z,47.60
2017-07-05T18:30:36.493Z,47.80
2017-07-05T18:33:03.002Z,48.20
2017-07-05T18:35:29.493Z,48.80
2017-07-05T18:37:56.027Z,49.00
2017-07-05T18:40:23.235Z,50.00
2017-07-05T18:42:49.721Z,49.90
2017-07-05T18:45:17.016Z,50.40
2017-07-05T18:47:43.484Z,50.40
2017-07-05T18:50:09.968Z,50.80
2017-07-05T18:52:36.626Z,51.40
2017-07-05T18:55:03.127Z,51.60
2017-07-05T18:57:29.673Z,52.20
2017-07-05T18:59:56.200Z,52.10
2017-07-05T19:02:22.696Z,52.30
2017-07-05T19:04:49.411Z,51.40
2017-07-05T19:07:15.898Z,52.00
2017-07-05T19:09:43.236Z,52.30
2017-07-05T19:12:10.634Z,51.80
2017-07-05T19:14:37.110Z,51.70
2017-07-05T19:17:04.461Z,52.90
2017-07-05T19:19:31.727Z,53.40
2017-07-05T19:21:58.213Z,53.40
2017-07-05T19:24:24.697Z,53.50
2017-07-05T19:26:51.249Z,53.20
2017-07-05T19:29:17.754Z,53.90
2017-07-05T19:31:44.286Z,53.90
2017-07-05T19:34:11.515Z,54.90
2017-07-05T19:36:38.757Z,55.60
2017-07-05T19:39:05.278Z,55.50
2017-07-05T19:41:31.749Z,55.60
2017-07-05T19:43:58.995Z,56.50
2017-07-05T19:46:26.237Z,56.30
2017-07-05T19:48:52.952Z,56.30
2017-07-05T19:51:19.413Z,56.30
2017-07-05T19:53:46.640Z,56.20
2017-07-05T19:56:13.167Z,56.20
2017-07-05T19:58:39.694Z,56.70
2017-07-05T20:01:06.257Z,56.60
2017-07-05T20:03:32.759Z,56.80
2017-07-05T20:05:59.502Z,57.10
2017-07-05T20:08:25.977Z,57.30
2017-07-05T20:10:53.208Z,58.20
2017-07-05T20:13:19.722Z,58.10
2017-07-05T20:15:46.227Z,58.30
2017-07-05T20:18:12.724Z,58.80
2017-07-05T20:20:39.976Z,59.30
2017-07-05T20:23:07.478Z,59.50
2017-07-05T20:25:33.962Z,59.50
2017-07-05T20:28:01.231Z,59.90
2017-07-05T20:30:27.822Z,59.80
2017-07-05T20:32:54.328Z,60.20
2017-07-05T20:35:20.858Z,60.40
2017-07-05T20:37:47.350Z,60.60
2017-07-05T20:40:14.750Z,61.40
2017-07-05T20:42:41.219Z,62.00
2017-07-05T20:45:07.714Z,61.50
2017-07-05T20:47:34.256Z,62.00
2017-07-05T20:50:00.760Z,62.30
2017-07-05T20:52:27.307Z,62.70
2017-07-05T20:54:53.828Z,62.90
2017-07-05T20:57:20.346Z,62.90
2017-07-05T20:59:46.856Z,63.30
2017-07-05T21:02:13.372Z,63.70
2017-07-05T21:04:39.847Z,63.80
2017-07-05T21:07:07.443Z,64.00
2017-07-05T21:09:33.973Z,64.00
2017-07-05T21:12:00.482Z,64.30
2017-07-05T21:14:27.019Z,64.70
2017-07-05T21:16:53.491Z,64.60
2017-07-05T21:19:19.962Z,64.90
2017-07-05T21:21:46.456Z,65.10
2017-07-05T21:24:12.927Z,65.40
2017-07-05T21:26:40.185Z,65.70
2017-07-05T21:29:06.675Z,65.70
2017-07-05T21:31:33.199Z,66.00
2017-07-05T21:33:59.702Z,66.30
2017-07-05T21:36:26.236Z,66.20
2017-07-05T21:38:52.770Z,66.60
2017-07-05T21:41:19.254Z,66.80
2017-07-05T21:43:46.481Z,66.90
2017-07-05T21:46:13.117Z,67.00
2017-07-05T21:48:39.615Z,67.40
2017-07-05T21:51:06.081Z,67.50
2017-07-05T21:53:32.610Z,67.60
2017-07-05T21:55:59.095Z,68.40
2017-07-05T21:58:25.613Z,68.00
2017-07-05T22:00:52.904Z,68.50
2017-07-05T22:03:19.357Z,69.20
2017-07-05T22:05:45.877Z,68.70
2017-07-05T22:08:12.366Z,68.80
2017-07-05T22:10:39.760Z,68.70
2017-07-05T22:13:06.227Z,68.70
2017-07-05T22:15:32.699Z,69.00
2017-07-05T22:17:59.226Z,69.10
2017-07-05T22:20:25.716Z,69.40
2017-07-05T22:22:52.196Z,69.40
2017-07-05T22:25:18.723Z,69.40
2017-07-05T22:27:45.958Z,69.90
2017-07-05T22:30:13.236Z,70.00
2017-07-05T22:32:39.715Z,69.90
2017-07-05T22:35:06.196Z,70.10
2017-07-05T22:37:32.697Z,70.10
2017-07-05T22:39:59.170Z,70.50
2017-07-05T22:42:25.942Z,70.50
2017-07-05T22:44:52.477Z,70.80
2017-07-05T22:47:18.974Z,70.90
2017-07-05T22:49:45.548Z,70.80
2017-07-05T22:52:12.020Z,70.70
2017-07-05T22:54:39.264Z,71.20
2017-07-05T22:57:06.474Z,71.20
2017-07-05T22:59:32.976Z,71.20
2017-07-05T23:01:59.482Z,71.20
2017-07-05T23:04:26.723Z,71.70
2017-07-05T23:06:53.247Z,71.70
2017-07-05T23:09:19.736Z,71.70
2017-07-05T23:11:46.255Z,71.70
2017-07-05T23:14:12.765Z,72.10
2017-07-05T23:16:40.019Z,72.20
2017-07-05T23:19:07.256Z,72.40
2017-07-05T23:21:34.510Z,73.30
2017-07-05T23:24:01.750Z,72.90
2017-07-05T23:26:28.286Z,72.90
2017-07-05T23:28:54.990Z,72.90
2017-07-05T23:31:21.476Z,72.90
2017-07-05T23:33:48.713Z,72.80
2017-07-05T23:36:15.984Z,73.20
2017-07-05T23:38:42.508Z,73.10
2017-07-05T23:41:09.760Z,73.30
2017-07-05T23:43:36.255Z,73.30
2017-07-05T23:46:02.745Z,73.40
2017-07-05T23:48:29.256Z,73.40
2017-07-05T23:50:56.466Z,73.70
2017-07-05T23:53:22.977Z,73.60
2017-07-05T23:55:49.416Z,74.40
2017-07-05T23:58:15.934Z,74.00
